Norfolk International Airport
KORF : rendu visible

Aérodrome :











RETROUVEZ-NOUS SUR...

 
LOGIN :

S'inscrire | Disclaimer

   EN    FR    IT 

 









Légende :    VFR   VFR Marginal   IFR   IFR Intensif   IFR Très Intensif
Visi : 
Plafond : 
>= 8 km
>= 3000ft
5 à 8 km
1000 à 3000 ft
1500m à 5 km
500 à 1000 ft
800 à 1500m
200 à 500 ft
< 800m
< 200 ft
Symboles :   Orages  Brouillard  Fortes neiges  Fortes précipitations  Vent > 20 kt






- Altitude de l'aérodrome : 26 ft
- Code IATA : ORF


KORF - Norfolk International

DERNIER METAR :
  • 100651Z 22012KT 10SM CLR 18/15 A2993 RMK AO2 SLP134 T01830150

METARs EXPIRÉS :
  • 100551Z 21019G24KT 10SM CLR 19/16 A2992 RMK AO2 SLP133 T01890156 10194 20172 58003
  • 100451Z 21015KT 10SM CLR 18/16 A2993 RMK AO2 SLP136 T01830156 401940094

TAF KORF
Valide du 10 à 06h jusqu'au 11 à 06h UTC


100522Z 1006/1106 21012G22KT P6SM SCT020 OVC150
FM101500 25012G20KT P6SM BKN050
FM110000 33009KT 6SM -SHRA OVC025
FM110200 36010KT 5SM -RA BR OVC015



MET'MAP, la Météo Aéronautique d'un coup d'oeil ! - Copyright ORBIFLY Décembre 2007 - Disclaimer

ORBIFLY MET'MAP TEAM :

Programmation & Développement : Alexandra Zaïnal
Sur une idée originale de : Baudouin d'Aumeries
Assistance à la programmation : Marc-Olivier Méhu
Soutien technique & logistique : Manuel Goepfert

Contact : metmap@orbifly.com




SOURCES & CREDITS :

   NOAA       Earth
Advisory